sensor_id;sensor_type;location;lat;lon;timestamp;temperature;humidity
12164;DHT22;6145;50.192;10.064;2024-02-21T00:00:39;8.30;98.30
12164;DHT22;6145;50.192;10.064;2024-02-21T00:03:07;8.30;98.10
12164;DHT22;6145;50.192;10.064;2024-02-21T00:05:34;8.30;98.10
12164;DHT22;6145;50.192;10.064;2024-02-21T00:08:02;8.30;98.20
12164;DHT22;6145;50.192;10.064;2024-02-21T00:10:29;8.30;98.20
12164;DHT22;6145;50.192;10.064;2024-02-21T00:12:57;8.30;98.20
12164;DHT22;6145;50.192;10.064;2024-02-21T00:15:24;8.30;98.20
12164;DHT22;6145;50.192;10.064;2024-02-21T00:17:53;8.30;98.20
12164;DHT22;6145;50.192;10.064;2024-02-21T00:20:20;8.30;98.30
12164;DHT22;6145;50.192;10.064;2024-02-21T00:22:46;8.30;98.30
12164;DHT22;6145;50.192;10.064;2024-02-21T00:25:13;8.30;98.40
12164;DHT22;6145;50.192;10.064;2024-02-21T00:27:40;8.20;98.40
12164;DHT22;6145;50.192;10.064;2024-02-21T00:30:07;8.20;98.40
12164;DHT22;6145;50.192;10.064;2024-02-21T00:32:34;8.20;98.50
12164;DHT22;6145;50.192;10.064;2024-02-21T00:35:03;8.20;98.50
12164;DHT22;6145;50.192;10.064;2024-02-21T00:37:30;8.10;98.60
12164;DHT22;6145;50.192;10.064;2024-02-21T00:39:57;8.20;98.70
12164;DHT22;6145;50.192;10.064;2024-02-21T00:42:24;8.20;98.70
12164;DHT22;6145;50.192;10.064;2024-02-21T00:44:50;8.20;98.70
12164;DHT22;6145;50.192;10.064;2024-02-21T00:47:17;8.20;98.80
12164;DHT22;6145;50.192;10.064;2024-02-21T00:49:44;9.50;99.40
12164;DHT22;6145;50.192;10.064;2024-02-21T00:52:12;8.10;98.90
12164;DHT22;6145;50.192;10.064;2024-02-21T00:54:39;8.10;98.90
12164;DHT22;6145;50.192;10.064;2024-02-21T00:57:06;8.10;99.00
12164;DHT22;6145;50.192;10.064;2024-02-21T00:59:33;8.10;99.00
12164;DHT22;6145;50.192;10.064;2024-02-21T01:02:00;8.90;99.40
12164;DHT22;6145;50.192;10.064;2024-02-21T01:04:26;8.60;99.30
12164;DHT22;6145;50.192;10.064;2024-02-21T01:06:53;8.10;99.10
12164;DHT22;6145;50.192;10.064;2024-02-21T01:09:21;8.10;99.10
12164;DHT22;6145;50.192;10.064;2024-02-21T01:11:48;8.10;99.10
12164;DHT22;6145;50.192;10.064;2024-02-21T01:14:15;8.10;99.20
12164;DHT22;6145;50.192;10.064;2024-02-21T01:16:41;8.10;99.20
12164;DHT22;6145;50.192;10.064;2024-02-21T01:19:08;8.10;99.20
12164;DHT22;6145;50.192;10.064;2024-02-21T01:21:35;8.10;99.20
12164;DHT22;6145;50.192;10.064;2024-02-21T01:24:02;8.20;99.30
12164;DHT22;6145;50.192;10.064;2024-02-21T01:26:30;8.10;99.30
12164;DHT22;6145;50.192;10.064;2024-02-21T01:28:57;8.10;99.30
12164;DHT22;6145;50.192;10.064;2024-02-21T01:31:23;8.10;99.40
12164;DHT22;6145;50.192;10.064;2024-02-21T01:33:50;8.10;99.30
12164;DHT22;6145;50.192;10.064;2024-02-21T01:36:17;8.10;99.40
12164;DHT22;6145;50.192;10.064;2024-02-21T01:38:43;8.10;99.50
12164;DHT22;6145;50.192;10.064;2024-02-21T01:41:10;8.10;99.60
12164;DHT22;6145;50.192;10.064;2024-02-21T01:43:38;8.10;99.60
12164;DHT22;6145;50.192;10.064;2024-02-21T01:46:05;8.10;99.80
12164;DHT22;6145;50.192;10.064;2024-02-21T01:48:33;8.10;99.80
12164;DHT22;6145;50.192;10.064;2024-02-21T01:51:01;8.80;99.90
12164;DHT22;6145;50.192;10.064;2024-02-21T01:53:30;8.10;99.90
12164;DHT22;6145;50.192;10.064;2024-02-21T01:55:59;8.10;99.90
12164;DHT22;6145;50.192;10.064;2024-02-21T01:58:28;8.20;99.90
12164;DHT22;6145;50.192;10.064;2024-02-21T02:00:56;8.10;99.90
12164;DHT22;6145;50.192;10.064;2024-02-21T02:03:23;8.10;99.90
12164;DHT22;6145;50.192;10.064;2024-02-21T02:05:51;8.10;99.90
12164;DHT22;6145;50.192;10.064;2024-02-21T02:08:19;8.10;99.90
12164;DHT22;6145;50.192;10.064;2024-02-21T02:10:47;8.10;99.90
12164;DHT22;6145;50.192;10.064;2024-02-21T02:13:14;8.10;99.90
12164;DHT22;6145;50.192;10.064;2024-02-21T02:15:42;8.10;99.90
12164;DHT22;6145;50.192;10.064;2024-02-21T02:18:11;8.00;99.90
12164;DHT22;6145;50.192;10.064;2024-02-21T02:20:38;8.00;99.90
12164;DHT22;6145;50.192;10.064;2024-02-21T02:23:07;8.00;99.90
12164;DHT22;6145;50.192;10.064;2024-02-21T02:25:38;8.00;99.90
12164;DHT22;6145;50.192;10.064;2024-02-21T02:28:05;9.30;99.90
12164;DHT22;6145;50.192;10.064;2024-02-21T02:30:33;7.90;99.90
12164;DHT22;6145;50.192;10.064;2024-02-21T02:33:01;7.90;99.90
12164;DHT22;6145;50.192;10.064;2024-02-21T02:35:28;8.00;99.90
12164;DHT22;6145;50.192;10.064;2024-02-21T02:37:55;7.90;99.90
12164;DHT22;6145;50.192;10.064;2024-02-21T02:40:22;7.80;99.90
12164;DHT22;6145;50.192;10.064;2024-02-21T02:42:50;7.80;99.90
12164;DHT22;6145;50.192;10.064;2024-02-21T02:45:17;7.90;99.90
12164;DHT22;6145;50.192;10.064;2024-02-21T02:47:44;7.90;99.90
12164;DHT22;6145;50.192;10.064;2024-02-21T02:50:11;8.00;99.90
12164;DHT22;6145;50.192;10.064;2024-02-21T02:52:38;7.90;99.90
12164;DHT22;6145;50.192;10.064;2024-02-21T02:55:05;7.90;99.90
12164;DHT22;6145;50.192;10.064;2024-02-21T02:57:32;7.90;99.90
12164;DHT22;6145;50.192;10.064;2024-02-21T03:00:01;7.90;99.90
12164;DHT22;6145;50.192;10.064;2024-02-21T03:02:27;7.90;99.90
12164;DHT22;6145;50.192;10.064;2024-02-21T03:04:54;8.30;99.90
12164;DHT22;6145;50.192;10.064;2024-02-21T03:07:21;7.90;99.90
12164;DHT22;6145;50.192;10.064;2024-02-21T03:09:48;8.00;99.90
12164;DHT22;6145;50.192;10.064;2024-02-21T03:12:14;8.70;99.90
12164;DHT22;6145;50.192;10.064;2024-02-21T03:14:49;7.90;99.90
12164;DHT22;6145;50.192;10.064;2024-02-21T03:17:17;7.90;99.90
12164;DHT22;6145;50.192;10.064;2024-02-21T03:19:44;7.90;99.90
12164;DHT22;6145;50.192;10.064;2024-02-21T03:22:11;7.90;99.90
12164;DHT22;6145;50.192;10.064;2024-02-21T03:24:37;7.90;99.90
12164;DHT22;6145;50.192;10.064;2024-02-21T03:27:04;7.90;99.90
12164;DHT22;6145;50.192;10.064;2024-02-21T03:29:31;7.80;99.90
12164;DHT22;6145;50.192;10.064;2024-02-21T03:31:58;9.20;99.90
12164;DHT22;6145;50.192;10.064;2024-02-21T03:34:26;7.90;99.90
12164;DHT22;6145;50.192;10.064;2024-02-21T03:36:52;9.50;99.90
12164;DHT22;6145;50.192;10.064;2024-02-21T03:39:19;8.10;99.90
12164;DHT22;6145;50.192;10.064;2024-02-21T03:41:46;7.90;99.90
12164;DHT22;6145;50.192;10.064;2024-02-21T03:44:13;7.80;99.90
12164;DHT22;6145;50.192;10.064;2024-02-21T03:46:40;7.90;99.90
12164;DHT22;6145;50.192;10.064;2024-02-21T03:49:07;7.90;99.90
12164;DHT22;6145;50.192;10.064;2024-02-21T03:51:35;7.80;99.90
12164;DHT22;6145;50.192;10.064;2024-02-21T03:54:02;7.70;99.90
12164;DHT22;6145;50.192;10.064;2024-02-21T03:56:29;7.70;99.90
12164;DHT22;6145;50.192;10.064;2024-02-21T03:58:55;8.10;99.90
12164;DHT22;6145;50.192;10.064;2024-02-21T04:01:23;7.60;99.90
12164;DHT22;6145;50.192;10.064;2024-02-21T04:03:50;7.60;99.90
12164;DHT22;6145;50.192;10.064;2024-02-21T04:06:17;7.60;99.90
12164;DHT22;6145;50.192;10.064;2024-02-21T04:08:45;7.90;99.90
12164;DHT22;6145;50.192;10.064;2024-02-21T04:11:12;7.60;99.90
12164;DHT22;6145;50.192;10.064;2024-02-21T04:13:39;7.60;99.90
12164;DHT22;6145;50.192;10.064;2024-02-21T04:16:06;7.50;99.90
12164;DHT22;6145;50.192;10.064;2024-02-21T04:18:33;7.60;99.90
12164;DHT22;6145;50.192;10.064;2024-02-21T04:20:59;8.10;99.90
12164;DHT22;6145;50.192;10.064;2024-02-21T04:23:26;7.60;99.90
12164;DHT22;6145;50.192;10.064;2024-02-21T04:25:54;8.20;99.90
12164;DHT22;6145;50.192;10.064;2024-02-21T04:28:21;7.50;99.90
12164;DHT22;6145;50.192;10.064;2024-02-21T04:30:48;7.50;99.90
12164;DHT22;6145;50.192;10.064;2024-02-21T04:33:14;7.60;99.90
12164;DHT22;6145;50.192;10.064;2024-02-21T04:35:41;7.50;99.90
12164;DHT22;6145;50.192;10.064;2024-02-21T04:38:08;7.70;99.90
12164;DHT22;6145;50.192;10.064;2024-02-21T04:40:35;7.50;99.90
12164;DHT22;6145;50.192;10.064;2024-02-21T04:43:03;7.50;99.90
12164;DHT22;6145;50.192;10.064;2024-02-21T04:45:30;7.40;99.90
12164;DHT22;6145;50.192;10.064;2024-02-21T04:47:57;7.50;99.90
12164;DHT22;6145;50.192;10.064;2024-02-21T04:50:37;7.40;99.90
12164;DHT22;6145;50.192;10.064;2024-02-21T04:53:03;7.40;99.90
12164;DHT22;6145;50.192;10.064;2024-02-21T04:55:30;7.50;99.90
12164;DHT22;6145;50.192;10.064;2024-02-21T04:57:57;7.50;99.90
12164;DHT22;6145;50.192;10.064;2024-02-21T05:00:25;7.50;99.90
12164;DHT22;6145;50.192;10.064;2024-02-21T05:02:52;7.50;99.90
12164;DHT22;6145;50.192;10.064;2024-02-21T05:05:18;7.50;99.90
12164;DHT22;6145;50.192;10.064;2024-02-21T05:07:45;7.50;99.90
12164;DHT22;6145;50.192;10.064;2024-02-21T05:10:12;7.40;99.90
12164;DHT22;6145;50.192;10.064;2024-02-21T05:12:39;7.40;99.90
12164;DHT22;6145;50.192;10.064;2024-02-21T05:15:06;7.40;99.90
12164;DHT22;6145;50.192;10.064;2024-02-21T05:17:35;7.40;99.90
12164;DHT22;6145;50.192;10.064;2024-02-21T05:20:02;7.40;99.90
12164;DHT22;6145;50.192;10.064;2024-02-21T05:22:29;7.40;99.90
12164;DHT22;6145;50.192;10.064;2024-02-21T05:24:56;7.40;99.90
12164;DHT22;6145;50.192;10.064;2024-02-21T05:27:22;7.40;99.90
12164;DHT22;6145;50.192;10.064;2024-02-21T05:29:49;7.40;99.90
12164;DHT22;6145;50.192;10.064;2024-02-21T05:32:16;7.50;99.90
12164;DHT22;6145;50.192;10.064;2024-02-21T05:34:44;7.60;99.90
12164;DHT22;6145;50.192;10.064;2024-02-21T05:37:11;7.60;99.90
12164;DHT22;6145;50.192;10.064;2024-02-21T05:39:38;9.10;99.90
12164;DHT22;6145;50.192;10.064;2024-02-21T05:42:05;7.40;99.90
12164;DHT22;6145;50.192;10.064;2024-02-21T05:44:31;7.40;99.90
12164;DHT22;6145;50.192;10.064;2024-02-21T05:46:58;8.20;99.90
12164;DHT22;6145;50.192;10.064;2024-02-21T05:49:25;7.40;99.90
12164;DHT22;6145;50.192;10.064;2024-02-21T05:51:53;7.30;99.90
12164;DHT22;6145;50.192;10.064;2024-02-21T05:54:20;7.30;99.90
12164;DHT22;6145;50.192;10.064;2024-02-21T05:56:47;7.30;99.90
12164;DHT22;6145;50.192;10.064;2024-02-21T05:59:14;7.30;99.90
12164;DHT22;6145;50.192;10.064;2024-02-21T06:01:40;7.30;99.90
12164;DHT22;6145;50.192;10.064;2024-02-21T06:04:07;7.30;99.90
12164;DHT22;6145;50.192;10.064;2024-02-21T06:06:34;7.40;99.90
12164;DHT22;6145;50.192;10.064;2024-02-21T06:09:02;7.40;99.90
12164;DHT22;6145;50.192;10.064;2024-02-21T06:11:29;7.40;99.90
12164;DHT22;6145;50.192;10.064;2024-02-21T06:13:56;7.40;99.90
12164;DHT22;6145;50.192;10.064;2024-02-21T06:16:22;7.80;99.90
12164;DHT22;6145;50.192;10.064;2024-02-21T06:18:49;7.40;99.90
12164;DHT22;6145;50.192;10.064;2024-02-21T06:21:16;7.50;99.90
12164;DHT22;6145;50.192;10.064;2024-02-21T06:23:43;7.50;99.90
12164;DHT22;6145;50.192;10.064;2024-02-21T06:26:11;7.50;99.90
12164;DHT22;6145;50.192;10.064;2024-02-21T06:28:38;7.50;99.90
12164;DHT22;6145;50.192;10.064;2024-02-21T06:31:04;7.50;99.90
12164;DHT22;6145;50.192;10.064;2024-02-21T06:33:31;7.40;99.90
12164;DHT22;6145;50.192;10.064;2024-02-21T06:35:58;7.50;99.90
12164;DHT22;6145;50.192;10.064;2024-02-21T06:38:25;7.80;99.90
12164;DHT22;6145;50.192;10.064;2024-02-21T06:40:51;7.50;99.90
12164;DHT22;6145;50.192;10.064;2024-02-21T06:43:21;7.60;99.90
12164;DHT22;6145;50.192;10.064;2024-02-21T06:45:48;7.60;99.90
12164;DHT22;6145;50.192;10.064;2024-02-21T06:48:17;7.70;99.90
12164;DHT22;6145;50.192;10.064;2024-02-21T06:50:44;7.70;99.90
12164;DHT22;6145;50.192;10.064;2024-02-21T06:53:11;7.70;99.90
12164;DHT22;6145;50.192;10.064;2024-02-21T06:55:37;7.70;99.90
12164;DHT22;6145;50.192;10.064;2024-02-21T06:58:04;7.80;99.90
12164;DHT22;6145;50.192;10.064;2024-02-21T07:00:35;7.70;99.90
12164;DHT22;6145;50.192;10.064;2024-02-21T07:03:02;7.70;99.90
12164;DHT22;6145;50.192;10.064;2024-02-21T07:05:29;7.80;99.90
12164;DHT22;6145;50.192;10.064;2024-02-21T07:07:55;7.80;99.90
12164;DHT22;6145;50.192;10.064;2024-02-21T07:10:22;7.80;99.90
12164;DHT22;6145;50.192;10.064;2024-02-21T07:12:49;7.90;99.90
12164;DHT22;6145;50.192;10.064;2024-02-21T07:15:17;8.00;99.90
12164;DHT22;6145;50.192;10.064;2024-02-21T07:17:45;8.10;99.90
12164;DHT22;6145;50.192;10.064;2024-02-21T07:20:12;8.20;99.90
12164;DHT22;6145;50.192;10.064;2024-02-21T07:22:39;8.10;99.90
12164;DHT22;6145;50.192;10.064;2024-02-21T07:25:06;8.20;99.90
12164;DHT22;6145;50.192;10.064;2024-02-21T07:27:33;8.10;99.90
12164;DHT22;6145;50.192;10.064;2024-02-21T07:30:00;8.20;99.90
12164;DHT22;6145;50.192;10.064;2024-02-21T07:32:27;9.10;99.90
12164;DHT22;6145;50.192;10.064;2024-02-21T07:34:55;8.10;99.90
12164;DHT22;6145;50.192;10.064;2024-02-21T07:37:22;8.10;99.90
12164;DHT22;6145;50.192;10.064;2024-02-21T07:39:48;8.10;99.90
12164;DHT22;6145;50.192;10.064;2024-02-21T07:42:15;8.00;99.90
12164;DHT22;6145;50.192;10.064;2024-02-21T07:44:42;9.40;99.90
12164;DHT22;6145;50.192;10.064;2024-02-21T07:47:09;8.00;99.90
12164;DHT22;6145;50.192;10.064;2024-02-21T07:49:41;8.10;99.90
12164;DHT22;6145;50.192;10.064;2024-02-21T07:52:09;8.10;99.90
12164;DHT22;6145;50.192;10.064;2024-02-21T07:54:36;8.90;99.90
12164;DHT22;6145;50.192;10.064;2024-02-21T07:57:03;8.30;99.90
12164;DHT22;6145;50.192;10.064;2024-02-21T07:59:30;8.40;99.90
12164;DHT22;6145;50.192;10.064;2024-02-21T08:01:57;8.50;99.90
12164;DHT22;6145;50.192;10.064;2024-02-21T08:04:24;8.60;99.90
12164;DHT22;6145;50.192;10.064;2024-02-21T08:06:52;8.60;99.90
12164;DHT22;6145;50.192;10.064;2024-02-21T08:09:22;8.70;99.90
12164;DHT22;6145;50.192;10.064;2024-02-21T08:11:49;9.40;99.90
12164;DHT22;6145;50.192;10.064;2024-02-21T08:14:17;8.80;99.90
12164;DHT22;6145;50.192;10.064;2024-02-21T08:16:43;8.80;99.90
12164;DHT22;6145;50.192;10.064;2024-02-21T08:19:10;8.90;99.90
12164;DHT22;6145;50.192;10.064;2024-02-21T08:21:37;9.00;99.90
12164;DHT22;6145;50.192;10.064;2024-02-21T08:24:04;10.50;99.90
12164;DHT22;6145;50.192;10.064;2024-02-21T08:26:32;9.40;99.90
12164;DHT22;6145;50.192;10.064;2024-02-21T08:28:59;9.60;99.90
12164;DHT22;6145;50.192;10.064;2024-02-21T08:31:26;10.40;99.90
12164;DHT22;6145;50.192;10.064;2024-02-21T08:33:56;11.70;99.90
12164;DHT22;6145;50.192;10.064;2024-02-21T08:36:28;11.50;99.90
12164;DHT22;6145;50.192;10.064;2024-02-21T08:38:54;11.00;99.70
12164;DHT22;6145;50.192;10.064;2024-02-21T08:41:21;10.70;99.90
12164;DHT22;6145;50.192;10.064;2024-02-21T08:43:51;10.60;99.40
12164;DHT22;6145;50.192;10.064;2024-02-21T08:46:18;10.80;99.60
12164;DHT22;6145;50.192;10.064;2024-02-21T08:48:44;11.20;99.50
12164;DHT22;6145;50.192;10.064;2024-02-21T08:51:12;12.00;99.60
12164;DHT22;6145;50.192;10.064;2024-02-21T08:53:39;13.00;99.10
12164;DHT22;6145;50.192;10.064;2024-02-21T08:56:06;13.90;98.10
12164;DHT22;6145;50.192;10.064;2024-02-21T08:58:35;13.90;96.80
12164;DHT22;6145;50.192;10.064;2024-02-21T09:01:04;14.00;96.80
12164;DHT22;6145;50.192;10.064;2024-02-21T09:03:32;13.90;96.30
12164;DHT22;6145;50.192;10.064;2024-02-21T09:05:59;14.20;96.10
12164;DHT22;6145;50.192;10.064;2024-02-21T09:08:26;14.90;95.70
12164;DHT22;6145;50.192;10.064;2024-02-21T09:10:53;15.50;93.70
12164;DHT22;6145;50.192;10.064;2024-02-21T09:13:20;15.90;93.20
12164;DHT22;6145;50.192;10.064;2024-02-21T09:15:47;16.50;91.90
12164;DHT22;6145;50.192;10.064;2024-02-21T09:18:16;15.90;90.40
12164;DHT22;6145;50.192;10.064;2024-02-21T09:20:43;15.80;90.40
12164;DHT22;6145;50.192;10.064;2024-02-21T09:23:10;15.70;90.10
12164;DHT22;6145;50.192;10.064;2024-02-21T09:25:36;15.90;90.00
12164;DHT22;6145;50.192;10.064;2024-02-21T09:28:03;16.10;89.20
12164;DHT22;6145;50.192;10.064;2024-02-21T09:30:31;16.10;87.30
12164;DHT22;6145;50.192;10.064;2024-02-21T09:32:58;15.90;85.70
12164;DHT22;6145;50.192;10.064;2024-02-21T09:35:28;15.80;86.90
12164;DHT22;6145;50.192;10.064;2024-02-21T09:37:55;15.90;87.10
12164;DHT22;6145;50.192;10.064;2024-02-21T09:40:21;16.00;86.70
12164;DHT22;6145;50.192;10.064;2024-02-21T09:42:55;15.80;84.70
12164;DHT22;6145;50.192;10.064;2024-02-21T09:45:28;15.60;84.60
12164;DHT22;6145;50.192;10.064;2024-02-21T09:48:15;15.40;84.90
12164;DHT22;6145;50.192;10.064;2024-02-21T09:50:49;15.30;84.40
12164;DHT22;6145;50.192;10.064;2024-02-21T09:53:16;14.90;83.90
12164;DHT22;6145;50.192;10.064;2024-02-21T09:55:45;14.60;83.40
12164;DHT22;6145;50.192;10.064;2024-02-21T09:58:13;14.10;84.10
12164;DHT22;6145;50.192;10.064;2024-02-21T10:00:40;14.00;85.30
12164;DHT22;6145;50.192;10.064;2024-02-21T10:03:07;14.00;85.30
12164;DHT22;6145;50.192;10.064;2024-02-21T10:05:35;14.10;85.60
12164;DHT22;6145;50.192;10.064;2024-02-21T10:08:04;13.70;86.10
12164;DHT22;6145;50.192;10.064;2024-02-21T10:10:40;13.60;86.00
12164;DHT22;6145;50.192;10.064;2024-02-21T10:13:09;13.60;86.10
12164;DHT22;6145;50.192;10.064;2024-02-21T10:15:36;13.50;86.30
12164;DHT22;6145;50.192;10.064;2024-02-21T10:18:03;13.50;86.60
12164;DHT22;6145;50.192;10.064;2024-02-21T10:20:31;13.80;87.00
12164;DHT22;6145;50.192;10.064;2024-02-21T10:23:03;14.00;86.90
12164;DHT22;6145;50.192;10.064;2024-02-21T10:25:34;14.30;86.50
12164;DHT22;6145;50.192;10.064;2024-02-21T10:28:02;14.50;86.00
12164;DHT22;6145;50.192;10.064;2024-02-21T10:30:29;14.70;85.80
12164;DHT22;6145;50.192;10.064;2024-02-21T10:32:56;14.90;85.50
12164;DHT22;6145;50.192;10.064;2024-02-21T10:35:28;15.30;85.40
12164;DHT22;6145;50.192;10.064;2024-02-21T10:37:56;15.90;84.30
12164;DHT22;6145;50.192;10.064;2024-02-21T10:40:29;15.30;83.70
12164;DHT22;6145;50.192;10.064;2024-02-21T10:42:57;15.70;84.20
12164;DHT22;6145;50.192;10.064;2024-02-21T10:45:29;16.10;83.40
12164;DHT22;6145;50.192;10.064;2024-02-21T10:48:11;16.10;81.00
12164;DHT22;6145;50.192;10.064;2024-02-21T10:50:52;16.00;81.40
12164;DHT22;6145;50.192;10.064;2024-02-21T10:53:34;16.30;80.40
12164;DHT22;6145;50.192;10.064;2024-02-21T10:56:10;16.50;81.00
12164;DHT22;6145;50.192;10.064;2024-02-21T10:58:39;16.90;80.20
12164;DHT22;6145;50.192;10.064;2024-02-21T11:01:06;16.90;78.50
12164;DHT22;6145;50.192;10.064;2024-02-21T11:03:34;17.00;77.90
12164;DHT22;6145;50.192;10.064;2024-02-21T11:06:02;16.70;77.00
12164;DHT22;6145;50.192;10.064;2024-02-21T11:08:30;16.50;77.00
12164;DHT22;6145;50.192;10.064;2024-02-21T11:10:59;16.30;77.20
12164;DHT22;6145;50.192;10.064;2024-02-21T11:13:35;16.30;76.60
12164;DHT22;6145;50.192;10.064;2024-02-21T11:16:08;16.20;76.80
12164;DHT22;6145;50.192;10.064;2024-02-21T11:18:36;16.00;76.40
12164;DHT22;6145;50.192;10.064;2024-02-21T11:21:03;15.70;76.40
12164;DHT22;6145;50.192;10.064;2024-02-21T11:23:31;15.40;76.60
12164;DHT22;6145;50.192;10.064;2024-02-21T11:26:05;15.20;76.80
12164;DHT22;6145;50.192;10.064;2024-02-21T11:28:34;14.90;77.20
12164;DHT22;6145;50.192;10.064;2024-02-21T11:31:07;14.60;77.70
12164;DHT22;6145;50.192;10.064;2024-02-21T11:33:34;14.40;77.90
12164;DHT22;6145;50.192;10.064;2024-02-21T11:36:01;14.20;78.30
12164;DHT22;6145;50.192;10.064;2024-02-21T11:38:30;14.00;78.30
12164;DHT22;6145;50.192;10.064;2024-02-21T11:40:56;13.90;78.50
12164;DHT22;6145;50.192;10.064;2024-02-21T11:43:23;13.70;79.00
12164;DHT22;6145;50.192;10.064;2024-02-21T11:45:58;13.60;79.20
12164;DHT22;6145;50.192;10.064;2024-02-21T11:48:25;13.50;79.40
12164;DHT22;6145;50.192;10.064;2024-02-21T11:50:53;13.40;79.40
12164;DHT22;6145;50.192;10.064;2024-02-21T11:53:21;13.20;78.90
12164;DHT22;6145;50.192;10.064;2024-02-21T11:55:49;13.20;79.40
12164;DHT22;6145;50.192;10.064;2024-02-21T11:58:16;13.10;79.70
12164;DHT22;6145;50.192;10.064;2024-02-21T12:00:43;13.20;80.00
12164;DHT22;6145;50.192;10.064;2024-02-21T12:03:11;13.20;80.40
12164;DHT22;6145;50.192;10.064;2024-02-21T12:05:38;13.30;80.80
12164;DHT22;6145;50.192;10.064;2024-02-21T12:08:05;13.40;80.30
12164;DHT22;6145;50.192;10.064;2024-02-21T12:10:32;13.50;80.40
12164;DHT22;6145;50.192;10.064;2024-02-21T12:13:07;13.70;80.30
12164;DHT22;6145;50.192;10.064;2024-02-21T12:15:35;13.80;79.80
12164;DHT22;6145;50.192;10.064;2024-02-21T12:18:01;13.80;78.60
12164;DHT22;6145;50.192;10.064;2024-02-21T12:20:30;13.90;78.80
12164;DHT22;6145;50.192;10.064;2024-02-21T12:23:00;14.10;78.70
12164;DHT22;6145;50.192;10.064;2024-02-21T12:25:28;14.40;78.90
12164;DHT22;6145;50.192;10.064;2024-02-21T12:27:55;14.40;78.80
12164;DHT22;6145;50.192;10.064;2024-02-21T12:30:22;14.60;77.60
12164;DHT22;6145;50.192;10.064;2024-02-21T12:32:49;14.70;76.70
12164;DHT22;6145;50.192;10.064;2024-02-21T12:35:16;14.80;76.60
12164;DHT22;6145;50.192;10.064;2024-02-21T12:37:44;15.10;75.80
12164;DHT22;6145;50.192;10.064;2024-02-21T12:40:11;15.20;74.90
12164;DHT22;6145;50.192;10.064;2024-02-21T12:42:38;15.30;73.80
12164;DHT22;6145;50.192;10.064;2024-02-21T12:45:06;15.20;73.90
12164;DHT22;6145;50.192;10.064;2024-02-21T12:47:33;15.10;73.80
12164;DHT22;6145;50.192;10.064;2024-02-21T12:50:00;15.10;74.00
12164;DHT22;6145;50.192;10.064;2024-02-21T12:52:28;15.30;73.70
12164;DHT22;6145;50.192;10.064;2024-02-21T12:54:57;15.00;72.90
12164;DHT22;6145;50.192;10.064;2024-02-21T12:57:24;14.70;72.60
12164;DHT22;6145;50.192;10.064;2024-02-21T12:59:51;14.40;72.50
12164;DHT22;6145;50.192;10.064;2024-02-21T13:02:18;14.10;72.90
12164;DHT22;6145;50.192;10.064;2024-02-21T13:04:45;14.10;73.90
12164;DHT22;6145;50.192;10.064;2024-02-21T13:07:12;14.20;75.60
12164;DHT22;6145;50.192;10.064;2024-02-21T13:09:39;14.20;76.60
12164;DHT22;6145;50.192;10.064;2024-02-21T13:12:08;14.20;77.10
12164;DHT22;6145;50.192;10.064;2024-02-21T13:14:34;14.10;77.50
12164;DHT22;6145;50.192;10.064;2024-02-21T13:17:04;14.00;77.80
12164;DHT22;6145;50.192;10.064;2024-02-21T13:19:31;13.90;78.00
12164;DHT22;6145;50.192;10.064;2024-02-21T13:21:58;14.00;78.70
12164;DHT22;6145;50.192;10.064;2024-02-21T13:24:25;13.90;79.20
12164;DHT22;6145;50.192;10.064;2024-02-21T13:26:51;14.10;80.20
12164;DHT22;6145;50.192;10.064;2024-02-21T13:29:20;14.60;79.90
12164;DHT22;6145;50.192;10.064;2024-02-21T13:31:47;14.00;79.20
12164;DHT22;6145;50.192;10.064;2024-02-21T13:34:15;14.00;79.40
12164;DHT22;6145;50.192;10.064;2024-02-21T13:36:42;14.00;79.20
12164;DHT22;6145;50.192;10.064;2024-02-21T13:39:09;14.00;79.30
12164;DHT22;6145;50.192;10.064;2024-02-21T13:41:38;14.00;79.10
12164;DHT22;6145;50.192;10.064;2024-02-21T13:44:05;13.90;79.00
12164;DHT22;6145;50.192;10.064;2024-02-21T13:46:33;13.70;78.80
12164;DHT22;6145;50.192;10.064;2024-02-21T13:49:03;13.60;78.90
12164;DHT22;6145;50.192;10.064;2024-02-21T13:51:32;13.40;78.80
12164;DHT22;6145;50.192;10.064;2024-02-21T13:53:58;13.30;78.70
12164;DHT22;6145;50.192;10.064;2024-02-21T13:56:25;13.10;79.20
12164;DHT22;6145;50.192;10.064;2024-02-21T13:58:52;13.00;79.50
12164;DHT22;6145;50.192;10.064;2024-02-21T14:01:19;13.00;80.00
12164;DHT22;6145;50.192;10.064;2024-02-21T14:03:47;13.10;80.40
12164;DHT22;6145;50.192;10.064;2024-02-21T14:06:14;13.30;80.70
12164;DHT22;6145;50.192;10.064;2024-02-21T14:08:40;13.10;80.60
12164;DHT22;6145;50.192;10.064;2024-02-21T14:11:08;13.10;80.70
12164;DHT22;6145;50.192;10.064;2024-02-21T14:13:35;13.10;80.80
12164;DHT22;6145;50.192;10.064;2024-02-21T14:16:01;13.00;80.90
12164;DHT22;6145;50.192;10.064;2024-02-21T14:18:28;13.00;81.10
12164;DHT22;6145;50.192;10.064;2024-02-21T14:20:56;12.90;81.30
12164;DHT22;6145;50.192;10.064;2024-02-21T14:23:23;12.90;81.30
12164;DHT22;6145;50.192;10.064;2024-02-21T14:25:50;12.80;81.50
12164;DHT22;6145;50.192;10.064;2024-02-21T14:28:16;12.80;82.10
12164;DHT22;6145;50.192;10.064;2024-02-21T14:30:43;12.80;82.10
12164;DHT22;6145;50.192;10.064;2024-02-21T14:33:12;12.80;82.30
12164;DHT22;6145;50.192;10.064;2024-02-21T14:35:39;12.90;82.70
12164;DHT22;6145;50.192;10.064;2024-02-21T14:38:08;12.80;83.10
12164;DHT22;6145;50.192;10.064;2024-02-21T14:40:35;12.80;82.50
12164;DHT22;6145;50.192;10.064;2024-02-21T14:43:03;12.70;82.80
12164;DHT22;6145;50.192;10.064;2024-02-21T14:45:30;12.60;82.90
12164;DHT22;6145;50.192;10.064;2024-02-21T14:47:57;12.60;83.30
12164;DHT22;6145;50.192;10.064;2024-02-21T14:50:23;12.60;83.50
12164;DHT22;6145;50.192;10.064;2024-02-21T14:52:50;12.60;83.70
12164;DHT22;6145;50.192;10.064;2024-02-21T14:55:19;12.70;83.60
12164;DHT22;6145;50.192;10.064;2024-02-21T14:57:45;12.60;83.40
12164;DHT22;6145;50.192;10.064;2024-02-21T15:00:13;12.70;83.80
12164;DHT22;6145;50.192;10.064;2024-02-21T15:02:40;12.50;83.50
12164;DHT22;6145;50.192;10.064;2024-02-21T15:05:08;12.50;84.00
12164;DHT22;6145;50.192;10.064;2024-02-21T15:07:35;12.40;83.80
12164;DHT22;6145;50.192;10.064;2024-02-21T15:10:02;12.40;83.80
12164;DHT22;6145;50.192;10.064;2024-02-21T15:12:30;12.30;84.00
12164;DHT22;6145;50.192;10.064;2024-02-21T15:14:58;12.70;84.10
12164;DHT22;6145;50.192;10.064;2024-02-21T15:17:24;12.30;83.70
12164;DHT22;6145;50.192;10.064;2024-02-21T15:19:51;12.20;83.80
12164;DHT22;6145;50.192;10.064;2024-02-21T15:22:20;12.10;84.00
12164;DHT22;6145;50.192;10.064;2024-02-21T15:24:48;12.00;84.40
12164;DHT22;6145;50.192;10.064;2024-02-21T15:27:15;12.10;84.40
12164;DHT22;6145;50.192;10.064;2024-02-21T15:29:43;11.90;84.40
12164;DHT22;6145;50.192;10.064;2024-02-21T15:32:10;11.90;84.50
12164;DHT22;6145;50.192;10.064;2024-02-21T15:34:37;11.80;85.10
12164;DHT22;6145;50.192;10.064;2024-02-21T15:37:05;12.00;85.20
12164;DHT22;6145;50.192;10.064;2024-02-21T15:39:33;11.60;85.40
12164;DHT22;6145;50.192;10.064;2024-02-21T15:42:01;11.70;85.50